Aireys Inlet, Victoria

12:36 PM EST on July 29, 2014 (GMT +1000)
Aireys Inlet Victoria Australia (IVICTORI430) Elev 121 ft | 38.46 °S, 144.11 °E | Change Station

Current weather conditions updated 27 seconds ago

Overcast
Overcast
64.4 °F
Feels Like 64.4 °F
N
13.6
Wind Variable Wind from West
Gusts 22.4 mph

Today is forecast to be Much Cooler than yesterday. Chance of showers.

Today
High -- | Low -- °F
--% Chance of Precip.
Yesterday
High -- | Low -- °F
Precip. -- in
7:28 AM 5:32 PM
Waxing Crescent, 4% visible
Pressure 29.74 in
Visibility 6.2 miles
Clouds Overcast 3800 ft
Dew Point 52 °F
Humidity 65%
Rainfall 0.00 in
Snow Depth Not available.
UV 2.0 out of 12
Pollen Not available.
Air Quality Not available.
Flu Activity Not available.
METAR YMAV 290200Z AUTO 34019KT 9999 // OVC038 16/09 Q1007

More Conditions Fewer Conditions

Pressure 29.74 in
Visibility 6.2 miles
Clouds Overcast 3800 ft
Dew Point 52 °F
Humidity 65%
Rainfall 0.00 in
Snow Depth Not available.
UV 2.0 out of 12
Pollen Not available.
Air Quality Not available.
Flu Activity Not available.
METAR YMAV 290200Z AUTO 34019KT 9999 // OVC038 16/09 Q1007

More Conditions Fewer Conditions

10-Day Weather Forecast

Almanac

Astronomy

Jul. 29, 2014 Rise Set
Actual Time 7:28 AM EST 5:32 PM EST
Civil Twilight 6:59 AM EST 6:00 PM EST
Nautical Twilight 6:27 AM EST 6:32 PM EST
Astronomical Twilight 5:56 AM EST 7:04 PM EST
Moon 8:17 AM EST 7:47 PM EST
Length of Visible Light 11h 00m
Length of Day
10h 03m
Tomorrow will be 1m 44s longer.
Waxing Crescent, 4% of the Moon is Illuminated
Jul 28
Waxing Crescent
Aug 3
First Quarter
Aug 10
Full
Aug 17
Last Quarter
Aug 25
New

Yesterday's Extremes

Country Highs Country Lows

Community

WunderPhotos

Upload Photos

1,738,587 photos uploaded!

Nearby

Snow Depth

Not available.

Earthquake Activity

City Distance Mag. Time & Date
No recent earthquake activity has been reported nearby.
Minimum magnitude displayed is 2.5.

Coastal Water Temperatures

Place Temperature
No Stations Reporting

Nearby Weather Stations

Station Location Temp. Dew Point Humidity Wind Precip. Elev Updated Type
Aireys Inlet Victoria Australia, Aireys Inlet 64.4 °F 52 °F 65% West  at  13.6 mph 0.00 in / hr 121 ft 12:36 PM EST Rapid Fire
Lorne 59.6 °F 52 °F 77% North  at  14.0 mph 0.00 in / hr 36 ft 12:24 PM EST Normal
Lorne 58.3 °F 51 °F 76% West  at  10.0 mph 0.00 in / hr 295 ft 12:21 PM EST Normal
Moriac 59.1 °F 52 °F 77% WNW  at  24.0 mph 0.00 in / hr 338 ft 12:36 PM EST Rapid Fire
Thomson, Geelong, Thomson 62.2 °F 50 °F 64% NW  at  13.0 mph 0.00 in / hr 66 ft 12:36 PM EST Rapid Fire
Geelong, Herne Hill 64.2 °F 49 °F 58% North  at  10.4 mph 0.00 in / hr 190 ft 12:36 PM EST Rapid Fire

Show More Stations Show Fewer Stations